Time;durP1;ratioP1;P1;durP2;ratioP2;P2;SDS_P1;SDS_P2;PMS_P1;PMS_P2;Temp;Humidity;BMP_temperature;BMP_pressure;BME280_temperature;BME280_humidity;BME280_pressure;Samples;Min_cycle;Max_cycle;Signal;HPM_P1;HPM_P2
2022/05/05 00:02:04;;;;;;;17.57;8.30;;;;;;;-145.18;100.00;46621.31;4994410;28;20617;-71
2022/05/05 00:04:29;;;;;;;12.30;7.53;;;;;;;-145.18;100.00;46625.22;5012387;28;20121;-70
2022/05/05 00:06:55;;;;;;;14.87;7.67;;;;;;;-145.18;100.00;46625.22;5012310;28;20048;-71
2022/05/05 00:09:20;;;;;;;18.67;8.50;;;;;;;-145.18;100.00;46582.25;5012119;28;20045;-71
2022/05/05 00:14:33;;;;;;;17.90;8.60;;;;;;;-145.18;100.00;46627.19;5012338;28;20072;-71
2022/05/05 00:17:07;;;;;;;20.00;8.60;;;;;;;-145.18;100.00;46631.09;5012020;28;20629;-71
2022/05/05 00:19:34;;;;;;;18.77;9.13;;;;;;;-145.18;100.00;46621.31;5012051;28;20260;-71
2022/05/05 00:21:59;;;;;;;15.87;8.87;;;;;;;-145.18;100.00;46619.38;5011673;28;20294;-71
2022/05/05 00:24:25;;;;;;;18.83;9.83;;;;;;;-145.18;100.00;46623.28;5012024;28;20263;-71
2022/05/05 00:26:51;;;;;;;21.37;9.77;;;;;;;-145.18;100.00;46627.19;5011662;28;20117;-71
2022/05/05 00:29:16;;;;;;;16.97;9.73;;;;;;;-145.18;100.00;46625.22;5011987;28;20482;-71
2022/05/05 00:31:43;;;;;;;14.03;9.17;;;;;;;-145.18;100.00;46625.22;5011834;28;20034;-71
2022/05/05 00:34:08;;;;;;;22.17;10.03;;;;;;;-145.18;100.00;46625.22;5011673;28;20065;-71
2022/05/05 00:36:34;;;;;;;15.30;9.30;;;;;;;-145.18;100.00;46625.22;5011825;28;20370;-71
2022/05/05 00:38:59;;;;;;;17.67;8.93;;;;;;;-145.18;100.00;46625.22;5012032;28;20064;-71
2022/05/05 00:41:24;;;;;;;24.43;9.73;;;;;;;-145.18;100.00;46633.06;5011385;28;20618;-70
2022/05/05 00:43:50;;;;;;;15.57;9.40;;;;;;;-145.18;100.00;46588.13;5011860;28;20037;-70
2022/05/05 00:46:15;;;;;;;17.90;9.20;;;;;;;-145.18;100.00;46625.22;4977502;28;20422;-70
2022/05/05 00:48:42;;;;;;;16.87;9.43;;;;;;;-145.18;100.00;46582.25;5011540;28;20391;-70
2022/05/05 00:51:08;;;;;;;15.57;8.57;;;;;;;-145.18;100.00;46629.13;5011339;28;20030;-70
2022/05/05 00:53:34;;;;;;;24.40;9.50;;;;;;;-145.18;100.00;46625.22;5011238;28;20290;-70
2022/05/05 00:56:07;;;;;;;16.53;9.97;;;;;;;-145.18;100.00;46625.22;5011770;28;20475;-70
2022/05/05 00:58:32;;;;;;;19.07;9.50;;;;;;;-145.18;100.00;46621.31;5011012;28;20109;-70
2022/05/05 01:01:04;;;;;;;20.53;11.20;;;;;;;-145.18;100.00;46621.31;5011201;28;20358;-70
2022/05/05 01:03:32;;;;;;;19.67;10.67;;;;;;;-145.18;100.00;46570.53;4995917;28;20058;-71
2022/05/05 01:05:57;;;;;;;18.73;9.93;;;;;;;-145.18;100.00;46621.31;4991992;28;20267;-70
2022/05/05 01:08:23;;;;;;;17.13;9.17;;;;;;;-145.18;100.00;46619.38;4991242;28;20279;-70
2022/05/05 01:10:48;;;;;;;20.50;9.37;;;;;;;-145.18;100.00;46621.31;4990755;28;20487;-70
2022/05/05 01:13:14;;;;;;;17.33;8.67;;;;;;;-145.18;100.00;46625.22;4990987;28;20041;-70
2022/05/05 01:15:39;;;;;;;21.47;10.03;;;;;;;-145.18;100.00;46625.22;4991796;28;20118;-70
2022/05/05 01:18:05;;;;;;;17.23;10.20;;;;;;;-145.18;100.00;46619.38;4990835;28;20494;-70
2022/05/05 01:20:30;;;;;;;22.70;9.97;;;;;;;-145.18;100.00;46615.47;4991555;28;20043;-70
2022/05/05 01:22:56;;;;;;;16.07;9.50;;;;;;;-145.18;100.00;46619.38;4991095;28;20034;-70
2022/05/05 01:28:12;;;;;;;17.47;9.97;;;;;;;-145.18;100.00;46623.28;4990952;28;20507;-71
2022/05/05 01:30:43;;;;;;;17.10;9.97;;;;;;;-145.18;100.00;46633.06;4991443;28;20292;-71
2022/05/05 01:33:28;;;;;;;16.23;9.63;;;;;;;-145.18;100.00;46631.09;4990681;28;20260;-71
2022/05/05 01:35:56;;;;;;;17.20;9.80;;;;;;;-145.18;100.00;46642.81;4991217;28;20629;-71
2022/05/05 01:38:40;;;;;;;17.03;9.90;;;;;;;-145.18;100.00;46656.50;4990849;28;20268;-71
2022/05/05 01:41:11;;;;;;;15.50;8.57;;;;;;;-145.18;100.00;46642.81;4991029;28;20264;-72
2022/05/05 01:43:38;;;;;;;17.67;9.57;;;;;;;-145.18;100.00;46635.00;4991026;28;20272;-71
2022/05/05 01:46:04;;;;;;;24.03;8.97;;;;;;;-145.18;100.00;46635.00;4991013;28;20398;-71
2022/05/05 01:48:30;;;;;;;17.43;8.60;;;;;;;-145.18;100.00;46631.09;4990711;28;20363;-71
2022/05/05 01:50:56;;;;;;;15.17;8.43;;;;;;;-145.18;100.00;46613.50;4973556;28;20284;-71
2022/05/05 01:53:22;;;;;;;16.93;8.93;;;;;;;-145.18;100.00;46609.59;4990711;28;20287;-71
2022/05/05 01:55:47;;;;;;;17.53;9.07;;;;;;;-145.18;100.00;46613.50;4991040;28;20272;-70
2022/05/05 01:58:13;;;;;;;20.77;10.40;;;;;;;-145.18;100.00;46623.28;4990472;28;20084;-70
2022/05/05 02:03:18;;;;;;;21.40;10.37;;;;;;;-145.18;100.00;46636.94;5093152;23;20046;-70
2022/05/05 02:05:45;;;;;;;18.90;10.07;;;;;;;-145.18;100.00;46660.41;4999106;28;20298;-70
2022/05/05 02:08:12;;;;;;;18.63;10.03;;;;;;;-145.18;100.00;46658.44;4990164;28;20030;-70
2022/05/05 02:10:38;;;;;;;24.60;11.83;;;;;;;-145.18;100.00;46668.22;4990866;28;20282;-70
2022/05/05 02:13:05;;;;;;;24.33;11.63;;;;;;;-145.18;100.00;46668.22;4990012;28;20367;-70
2022/05/05 02:15:31;;;;;;;21.80;11.63;;;;;;;-145.18;100.00;46664.31;4973737;28;20937;-70
2022/05/05 02:17:57;;;;;;;25.20;9.63;;;;;;;-145.18;100.00;46660.41;4990273;28;20363;-71
2022/05/05 02:20:22;;;;;;;17.50;9.33;;;;;;;-145.18;100.00;46658.44;4990798;28;20709;-71
2022/05/05 02:22:48;;;;;;;17.13;9.53;;;;;;;-145.18;100.00;46650.63;4989459;28;20031;-71
2022/05/05 02:25:13;;;;;;;17.03;9.70;;;;;;;-145.18;100.00;46644.78;4990638;28;20458;-71
2022/05/05 02:27:45;;;;;;;22.87;9.77;;;;;;;-145.18;100.00;46652.59;4990285;28;20045;-70
2022/05/05 02:30:11;;;;;;;16.53;9.77;;;;;;;-145.18;100.00;46631.09;4990521;28;20695;-71
2022/05/05 02:32:37;;;;;;;19.70;9.37;;;;;;;-145.18;100.00;46644.78;4990277;28;20264;-70
2022/05/05 02:35:02;;;;;;;19.57;9.60;;;;;;;-145.18;100.00;46660.41;4990260;28;20073;-71
2022/05/05 02:40:11;;;;;;;18.63;10.63;;;;;;;-145.18;100.00;46660.41;4975845;28;20049;-71
2022/05/05 02:42:37;;;;;;;14.63;8.73;;;;;;;-145.18;100.00;46635.00;4990344;28;20260;-71
2022/05/05 02:45:02;;;;;;;17.87;9.67;;;;;;;-145.18;100.00;46621.31;4989956;28;20068;-71
2022/05/05 02:47:28;;;;;;;18.03;10.07;;;;;;;-145.18;100.00;46623.28;4989775;28;20066;-70
2022/05/05 02:49:53;;;;;;;17.27;9.77;;;;;;;-145.18;100.00;46654.53;4990472;28;20034;-70
2022/05/05 02:52:18;;;;;;;21.43;10.03;;;;;;;-145.18;100.00;46660.41;4990247;28;20034;-70
2022/05/05 02:54:53;;;;;;;21.33;10.40;;;;;;;-145.18;100.00;46660.41;4990032;28;20409;-70
2022/05/05 02:57:20;;;;;;;22.33;11.17;;;;;;;-145.18;100.00;46652.59;4989910;28;20038;-71
2022/05/05 02:59:55;;;;;;;29.30;12.63;;;;;;;-145.18;100.00;46652.59;4973442;28;20322;-71
2022/05/05 03:03:18;;;;;;;21.00;11.05;;;;;;;-145.18;100.00;46664.31;4989444;28;20276;-70
2022/05/05 03:07:07;;;;;;;25.00;13.13;;;;;;;-145.18;100.00;46672.13;4990378;28;20034;-71
2022/05/05 03:10:29;;;;;;;;;;;;;;;-145.18;100.00;46660.41;4971496;28;20284;-71
2022/05/05 03:14:22;;;;;;;22.87;10.73;;;;;;;-145.18;100.00;46654.53;4969672;28;19914;-70
2022/05/05 03:21:57;;;;;;;22.13;10.13;;;;;;;-145.18;100.00;46627.19;4970682;28;20303;-71
2022/05/05 03:25:47;;;;;;;20.50;10.10;;;;;;;-145.18;100.00;46627.19;4970545;28;20257;-71
2022/05/05 03:29:36;;;;;;;26.77;11.63;;;;;;;-145.18;100.00;46625.22;4970444;28;20349;-70
2022/05/05 03:33:25;;;;;;;24.47;11.00;;;;;;;-145.18;100.00;46623.28;4948216;28;20368;-70
2022/05/05 03:36:46;;;;;;;;;;;;;;;-145.18;100.00;46638.91;4952718;29;20452;-70
2022/05/05 03:47:39;;;;;;;20.93;9.70;;;;;;;-145.18;100.00;46652.59;4990617;28;20275;-71
2022/05/05 03:55:08;;;;;;;31.60;12.17;;;;;;;-145.18;100.00;46691.66;4970502;28;20498;-71
2022/05/05 03:59:02;;;;;;;18.53;10.50;;;;;;;-145.18;100.00;46703.38;4971103;28;20269;-70
2022/05/05 10:31:59;;;;;;;47.00;28.23;;;;;;;-145.18;100.00;47084.28;4987415;28;20994;-71
2022/05/05 10:35:47;;;;;;;46.63;29.00;;;;;;;-145.18;100.00;47119.47;4969638;28;20066;-71
2022/05/05 10:39:31;;;;;;;45.67;26.90;;;;;;;-145.18;100.00;47094.06;4970551;28;20061;-71
2022/05/05 10:43:17;;;;;;;48.43;27.30;;;;;;;-145.18;100.00;47133.13;4970801;28;20073;-71
2022/05/05 10:47:05;;;;;;;47.07;28.20;;;;;;;-145.18;100.00;47125.31;4971771;28;20047;-72
2022/05/05 10:54:06;;;;;;;49.67;27.67;;;;;;;-145.18;100.00;47101.88;4974468;28;20435;-71
2022/05/05 10:57:51;;;;;;;42.60;27.07;;;;;;;-145.18;100.00;47109.69;4974954;28;20610;-71
2022/05/05 11:01:37;;;;;;;43.00;26.97;;;;;;;-145.18;100.00;47082.34;4956265;28;20043;-71
2022/05/05 11:22:48;;;;;;;43.60;25.93;;;;;;;-145.18;100.00;47064.75;4970694;28;20109;-72
2022/05/05 11:26:46;;;;;;;37.20;22.40;;;;;;;-145.18;100.00;47088.19;4972942;28;20104;-72
2022/05/05 11:30:50;;;;;;;34.67;23.07;;;;;;;-145.18;100.00;47070.63;4972859;28;20034;-72
2022/05/05 16:49:24;;;;;;;35.73;24.80;;;;;;;-145.18;100.00;47119.47;4975597;23;20220;-72
2022/05/05 16:51:53;;;;;;;32.77;23.07;;;;;;;-145.18;100.00;47101.88;4953210;28;20527;-72
2022/05/05 16:54:19;;;;;;;34.87;24.37;;;;;;;-145.18;100.00;47109.69;4951910;29;20035;-72
2022/05/05 16:56:45;;;;;;;31.80;21.43;;;;;;;-145.18;100.00;47121.41;4936243;28;20114;-72
2022/05/05 16:59:11;;;;;;;33.80;24.70;;;;;;;-145.18;100.00;47137.03;4952480;28;20650;-72
2022/05/05 17:01:38;;;;;;;33.70;24.47;;;;;;;-145.18;100.00;47121.41;4957005;28;20089;-72
2022/05/05 17:04:04;;;;;;;33.33;23.90;;;;;;;-145.18;100.00;47099.91;4972023;28;20050;-72
2022/05/05 17:06:29;;;;;;;34.30;23.70;;;;;;;-145.18;100.00;47094.06;4972069;28;20506;-71
2022/05/05 17:08:55;;;;;;;36.83;22.60;;;;;;;-145.18;100.00;47103.81;4972621;28;20035;-71
2022/05/05 17:11:20;;;;;;;36.20;25.53;;;;;;;-145.18;100.00;47096.00;4954472;28;20046;-72
2022/05/05 17:13:46;;;;;;;38.63;21.17;;;;;;;-145.18;100.00;47105.78;4972156;28;20114;-72
2022/05/05 17:16:11;;;;;;;32.97;22.47;;;;;;;-145.18;100.00;47121.41;4971477;28;20054;-72
2022/05/05 17:18:36;;;;;;;41.67;26.60;;;;;;;-145.18;100.00;47127.28;4972516;28;20061;-72
2022/05/05 17:21:02;;;;;;;40.90;26.10;;;;;;;-145.18;100.00;47119.47;4971727;28;20035;-72
2022/05/05 17:23:27;;;;;;;40.60;25.33;;;;;;;-145.18;100.00;47119.47;4980072;28;20418;-72
2022/05/05 17:25:52;;;;;;;35.07;23.83;;;;;;;-145.18;100.00;47092.09;4972833;28;20047;-72
2022/05/05 17:28:18;;;;;;;40.30;26.80;;;;;;;-145.18;100.00;47105.78;4971398;28;20470;-72
2022/05/05 17:30:43;;;;;;;38.27;24.63;;;;;;;-145.18;100.00;47094.06;4973168;28;20085;-72
2022/05/05 17:33:09;;;;;;;39.33;27.13;;;;;;;-145.18;100.00;47125.31;4980551;28;20518;-72
2022/05/05 17:35:34;;;;;;;42.13;25.57;;;;;;;-145.18;100.00;47090.16;4986494;28;20035;-72
2022/05/05 17:37:59;;;;;;;38.23;24.83;;;;;;;-145.18;100.00;47123.38;4979605;28;20041;-72
2022/05/05 17:40:25;;;;;;;35.10;23.50;;;;;;;-145.18;100.00;47119.47;4990154;28;20121;-72
2022/05/05 17:42:50;;;;;;;36.63;24.13;;;;;;;-145.18;100.00;47137.03;4990881;28;20109;-72
2022/05/05 17:50:43;;;;;;;33.47;23.30;;;;;;;-145.18;100.00;47154.63;4970625;28;20537;-72
2022/05/05 17:53:11;;;;;;;38.60;22.73;;;;;;;-145.18;100.00;47168.28;4970703;28;20042;-72
2022/05/05 17:55:37;;;;;;;39.00;23.00;;;;;;;-145.18;100.00;47170.25;4971389;28;20042;-72
2022/05/05 17:58:04;;;;;;;35.90;22.60;;;;;;;-145.18;100.00;47185.88;4989849;28;20034;-72
2022/05/05 18:00:32;;;;;;;34.90;20.67;;;;;;;-145.18;100.00;47203.47;4988861;28;20022;-71
2022/05/05 18:02:57;;;;;;;31.70;18.97;;;;;;;-145.18;100.00;47197.59;4989573;28;20026;-72
2022/05/05 18:05:23;;;;;;;35.47;21.37;;;;;;;-145.18;100.00;47226.91;4988641;28;20041;-72
2022/05/05 18:07:48;;;;;;;32.17;21.33;;;;;;;-145.18;100.00;47183.94;4989568;28;20146;-71
2022/05/05 18:10:14;;;;;;;37.30;19.13;;;;;;;-145.18;100.00;47226.91;4988972;28;20026;-72
2022/05/05 18:12:40;;;;;;;24.47;16.17;;;;;;;-145.18;100.00;47221.03;4989452;28;20509;-72
2022/05/05 18:15:07;;;;;;;25.67;16.43;;;;;;;-145.18;100.00;47230.81;4989157;28;20042;-72
2022/05/05 18:17:33;;;;;;;25.33;16.00;;;;;;;-145.18;100.00;47217.13;4983235;28;20030;-72
2022/05/05 18:20:00;;;;;;;24.07;14.10;;;;;;;-145.18;100.00;47252.31;4969905;28;20038;-72
2022/05/05 18:22:29;;;;;;;26.27;15.50;;;;;;;-145.18;100.00;47262.06;4969377;28;20376;-71
2022/05/05 18:24:56;;;;;;;27.27;15.90;;;;;;;-145.18;100.00;47291.38;4969710;28;20541;-71
2022/05/05 18:27:21;;;;;;;27.73;16.53;;;;;;;-145.18;100.00;47297.22;4969924;28;20495;-72
2022/05/05 18:29:46;;;;;;;26.20;16.37;;;;;;;-145.18;100.00;47297.22;4969604;28;20069;-72
2022/05/05 18:32:12;;;;;;;23.80;16.17;;;;;;;-145.18;100.00;47324.59;4970499;28;20102;-71
2022/05/05 18:34:38;;;;;;;28.20;16.73;;;;;;;-145.18;100.00;47297.22;4970776;28;20099;-72
2022/05/05 18:37:04;;;;;;;25.60;16.33;;;;;;;-145.18;100.00;47307.00;4970380;28;20035;-71
2022/05/05 18:39:29;;;;;;;27.67;15.93;;;;;;;-145.18;100.00;47265.97;4975840;28;20427;-71
2022/05/05 18:41:55;;;;;;;25.07;14.43;;;;;;;-145.18;100.00;47256.22;4969769;28;20057;-72
2022/05/05 18:44:20;;;;;;;27.90;17.77;;;;;;;-145.18;100.00;47066.72;4989394;28;20034;-72
2022/05/05 18:46:46;;;;;;;27.53;16.27;;;;;;;-145.18;100.00;46881.13;4988936;28;20030;-71
2022/05/05 18:49:12;;;;;;;27.00;16.50;;;;;;;-145.18;100.00;46783.47;4988509;28;20049;-70
2022/05/05 18:51:39;;;;;;;26.30;16.27;;;;;;;-145.18;100.00;46711.19;4966997;28;20049;-71
2022/05/05 18:54:06;;;;;;;30.60;18.07;;;;;;;-145.18;100.00;46699.47;4984033;28;20121;-71
2022/05/05 18:56:31;;;;;;;27.67;18.17;;;;;;;-145.18;100.00;46711.19;4969773;28;20093;-71
2022/05/05 18:58:57;;;;;;;32.13;18.53;;;;;;;-145.18;100.00;46693.59;4970795;28;20030;-72
2022/05/05 19:01:22;;;;;;;28.70;17.60;;;;;;;-145.18;100.00;46683.84;4952750;28;20049;-71
2022/05/05 19:03:48;;;;;;;27.20;16.57;;;;;;;-145.18;100.00;46674.06;4970857;28;20039;-71
2022/05/05 19:06:14;;;;;;;28.53;16.60;;;;;;;-145.18;100.00;46672.13;4973660;28;20057;-72
2022/05/05 19:08:40;;;;;;;28.30;16.73;;;;;;;-145.18;100.00;46681.88;4974729;28;20038;-71
2022/05/05 19:11:07;;;;;;;26.80;17.30;;;;;;;-145.18;100.00;46687.75;4973803;28;20526;-72
2022/05/05 19:13:32;;;;;;;26.57;15.87;;;;;;;-145.18;100.00;46676.03;4956701;28;20027;-71
2022/05/05 19:15:58;;;;;;;26.13;17.57;;;;;;;-145.18;100.00;46644.78;4973841;28;20483;-71
2022/05/05 19:18:23;;;;;;;28.90;15.93;;;;;;;-145.18;100.00;46642.81;4986353;28;20483;-71
2022/05/05 19:20:48;;;;;;;26.83;16.90;;;;;;;-145.18;100.00;46617.41;4992539;28;20064;-71
2022/05/05 19:23:14;;;;;;;35.27;16.90;;;;;;;-145.18;100.00;46619.38;4992447;28;20498;-71
2022/05/05 19:25:39;;;;;;;32.57;16.93;;;;;;;-145.18;100.00;46601.78;4993201;28;20066;-71
2022/05/05 19:28:05;;;;;;;27.87;16.90;;;;;;;-145.18;100.00;46588.13;4993322;28;20035;-71
2022/05/05 19:30:31;;;;;;;28.77;16.93;;;;;;;-145.18;100.00;46580.31;4992966;28;20033;-71
2022/05/05 19:32:57;;;;;;;27.67;16.80;;;;;;;-145.18;100.00;46590.06;4976200;28;20034;-71
2022/05/05 19:35:22;;;;;;;29.30;17.00;;;;;;;-145.18;100.00;46578.34;4992921;28;20125;-69
2022/05/05 19:37:48;;;;;;;28.27;17.53;;;;;;;-145.18;100.00;46627.19;4993290;28;20040;-69
2022/05/05 19:40:13;;;;;;;32.07;18.03;;;;;;;-145.18;100.00;46619.38;4993063;28;20042;-69
2022/05/05 19:42:38;;;;;;;29.40;16.63;;;;;;;-145.18;100.00;46619.38;4975809;28;20070;-69
2022/05/05 19:45:04;;;;;;;30.50;18.27;;;;;;;-145.18;100.00;46617.41;4985026;28;20039;-72
2022/05/05 19:47:30;;;;;;;28.20;16.87;;;;;;;-145.18;100.00;46617.41;4974079;28;20041;-71
2022/05/05 19:49:55;;;;;;;30.57;17.83;;;;;;;-145.18;100.00;46613.50;4971636;28;20058;-71
2022/05/05 19:52:20;;;;;;;25.73;17.03;;;;;;;-145.18;100.00;46570.53;4964767;28;20038;-71
2022/05/05 19:54:46;;;;;;;34.33;19.20;;;;;;;-145.18;100.00;46613.50;4963382;28;20113;-71
2022/05/05 20:01:11;;;;;;;35.37;20.33;;;;;;;-145.18;100.00;46652.59;4992155;28;20062;-72
2022/05/05 20:02:58;;;;;;;34.87;19.70;;;;;;;-145.18;100.00;46660.41;4960488;28;20043;-72
2022/05/05 20:08:08;;;;;;;38.37;19.47;;;;;;;-145.18;100.00;46664.31;4973468;28;20061;-72
2022/05/05 20:10:35;;;;;;;33.90;18.87;;;;;;;-145.18;100.00;46672.13;4972765;28;20551;-72
2022/05/05 20:13:00;;;;;;;36.73;20.57;;;;;;;-145.18;100.00;46672.13;4978732;28;20034;-72
2022/05/05 20:15:26;;;;;;;39.00;19.77;;;;;;;-145.18;100.00;46681.88;4972535;28;20041;-72
2022/05/05 20:17:52;;;;;;;37.93;19.70;;;;;;;-145.18;100.00;46691.66;4973214;28;20110;-72
2022/05/05 20:20:17;;;;;;;43.60;19.87;;;;;;;-145.18;100.00;46699.47;4972904;28;20106;-72
2022/05/05 20:22:42;;;;;;;34.80;19.33;;;;;;;-145.18;100.00;46701.41;4973394;28;20030;-72
2022/05/05 20:25:08;;;;;;;34.90;20.23;;;;;;;-145.18;100.00;46699.47;4987629;28;20041;-72
2022/05/05 20:27:33;;;;;;;35.83;19.97;;;;;;;-145.18;100.00;46699.47;4973166;28;20031;-72
2022/05/05 20:30:02;;;;;;;36.40;19.57;;;;;;;-145.18;100.00;46699.47;4972845;28;20114;-72
2022/05/05 20:32:28;;;;;;;35.80;20.33;;;;;;;-145.18;100.00;46699.47;4972644;28;20082;-72
2022/05/05 20:34:54;;;;;;;43.93;22.60;;;;;;;-145.18;100.00;46697.50;4972941;28;20035;-72
2022/05/05 20:37:22;;;;;;;36.93;21.13;;;;;;;-145.18;100.00;46689.69;4972431;28;20122;-72
2022/05/05 20:39:48;;;;;;;38.00;20.27;;;;;;;-145.18;100.00;46693.59;4972855;28;20097;-72
2022/05/05 20:42:14;;;;;;;38.33;18.60;;;;;;;-145.18;100.00;46693.59;4972525;28;20038;-72
2022/05/05 20:44:40;;;;;;;35.27;18.67;;;;;;;-145.18;100.00;46685.78;4972965;28;20395;-72
2022/05/05 20:47:06;;;;;;;39.80;20.10;;;;;;;-145.18;100.00;46689.69;4972493;28;20134;-72
2022/05/05 20:49:31;;;;;;;42.77;19.90;;;;;;;-145.18;100.00;46689.69;4972462;28;20035;-72
2022/05/05 20:51:58;;;;;;;41.13;19.33;;;;;;;-145.18;100.00;46685.78;4972391;28;20583;-72
2022/05/05 20:54:23;;;;;;;34.63;19.77;;;;;;;-145.18;100.00;46677.97;4972259;28;20043;-72
2022/05/05 20:56:50;;;;;;;42.10;20.73;;;;;;;-145.18;100.00;46679.94;4972071;28;20284;-71
2022/05/05 20:59:17;;;;;;;38.80;18.87;;;;;;;-145.18;100.00;46683.84;4955381;28;20038;-72
2022/05/05 21:01:44;;;;;;;34.93;19.37;;;;;;;-145.18;100.00;46676.03;4971911;28;20749;-72
2022/05/05 21:04:09;;;;;;;38.03;19.80;;;;;;;-145.18;100.00;46672.13;4971974;28;20304;-72
2022/05/05 21:06:35;;;;;;;37.33;18.50;;;;;;;-145.18;100.00;46670.16;4971952;28;20674;-72
2022/05/05 21:09:00;;;;;;;39.80;19.30;;;;;;;-145.18;100.00;46668.22;4980163;28;20030;-72
2022/05/05 21:11:25;;;;;;;47.20;19.73;;;;;;;-145.18;100.00;46664.31;4990736;28;20035;-72
2022/05/05 21:13:51;;;;;;;34.67;18.70;;;;;;;-145.18;100.00;46662.34;4991643;28;20026;-72
2022/05/05 21:16:16;;;;;;;36.93;20.03;;;;;;;-145.18;100.00;46668.22;4991012;28;20068;-72
2022/05/05 21:18:42;;;;;;;42.27;20.33;;;;;;;-145.18;100.00;46660.41;4988996;28;20034;-72
2022/05/05 21:26:35;;;;;;;46.13;24.10;;;;;;;-145.18;100.00;46660.41;4970765;28;20260;-72
2022/05/05 21:29:00;;;;;;;49.53;24.80;;;;;;;-145.18;100.00;46660.41;4971949;28;20296;-72
2022/05/05 21:31:26;;;;;;;40.67;22.07;;;;;;;-145.18;100.00;46656.50;4971323;28;20042;-71
2022/05/05 21:33:52;;;;;;;44.60;23.70;;;;;;;-145.18;100.00;46654.53;4954556;28;20104;-71
2022/05/05 21:36:18;;;;;;;44.90;24.47;;;;;;;-145.18;100.00;46656.50;4971148;28;20518;-72
2022/05/05 21:38:43;;;;;;;47.57;24.03;;;;;;;-145.18;100.00;46652.59;4971944;28;20039;-72
2022/05/05 21:41:09;;;;;;;53.23;26.63;;;;;;;-145.18;100.00;46656.50;4971141;28;20660;-72
2022/05/05 21:43:35;;;;;;;47.80;24.70;;;;;;;-145.18;100.00;46654.53;4971550;28;20489;-72
2022/05/05 21:46:03;;;;;;;50.40;25.77;;;;;;;-145.18;100.00;46654.53;4971403;28;20038;-72
2022/05/05 21:48:29;;;;;;;54.00;27.30;;;;;;;-145.18;100.00;46656.50;4971393;28;20273;-72
2022/05/05 21:50:56;;;;;;;46.73;26.00;;;;;;;-145.18;100.00;46656.50;4970822;28;20912;-72
2022/05/05 21:53:21;;;;;;;53.63;27.87;;;;;;;-145.18;100.00;46652.59;4971439;28;20300;-72
2022/05/05 21:55:47;;;;;;;53.03;27.13;;;;;;;-145.18;100.00;46650.63;4970925;28;20343;-72
2022/05/05 21:58:13;;;;;;;52.97;27.97;;;;;;;-145.18;100.00;46652.59;4971352;28;20037;-72
2022/05/05 22:00:44;;;;;;;87.33;27.40;;;;;;;-145.18;100.00;46654.53;4971053;28;20031;-72
2022/05/05 22:03:11;;;;;;;135.20;24.43;;;;;;;-145.18;100.00;46652.59;4971049;28;21052;-72
2022/05/05 22:05:37;;;;;;;149.30;29.40;;;;;;;-145.18;100.00;46650.63;4970935;28;20271;-72
2022/05/05 22:08:04;;;;;;;127.03;30.47;;;;;;;-145.18;100.00;46648.69;4971198;28;20753;-72
2022/05/05 22:10:31;;;;;;;148.07;31.73;;;;;;;-145.18;100.00;46646.72;4970739;28;20641;-72
2022/05/05 22:12:56;;;;;;;133.50;30.83;;;;;;;-145.18;100.00;46652.59;4971212;28;20673;-72
2022/05/05 22:15:21;;;;;;;148.20;35.00;;;;;;;-145.18;100.00;46648.69;4970614;28;20296;-72
2022/05/05 22:17:47;;;;;;;130.43;35.60;;;;;;;-145.18;100.00;46646.72;4970995;28;20089;-72
2022/05/05 22:20:12;;;;;;;123.93;35.20;;;;;;;-145.18;100.00;46640.88;4971077;28;20428;-72
2022/05/05 22:22:37;;;;;;;138.87;34.97;;;;;;;-145.18;100.00;46679.94;4974906;28;20164;-72
2022/05/05 22:25:03;;;;;;;100.23;35.63;;;;;;;-145.18;100.00;46646.72;4990188;28;20528;-72
2022/05/05 22:27:28;;;;;;;145.00;35.03;;;;;;;-145.18;100.00;46640.88;4989864;28;20034;-72
2022/05/05 22:29:53;;;;;;;138.77;35.20;;;;;;;-145.18;100.00;46644.78;4990618;28;20061;-72
2022/05/05 22:32:19;;;;;;;151.37;37.40;;;;;;;-145.18;100.00;46640.88;4990018;28;20479;-72
2022/05/05 22:34:44;;;;;;;147.73;36.17;;;;;;;-145.18;100.00;46642.81;4972498;28;20502;-72
2022/05/05 22:37:10;;;;;;;143.17;34.50;;;;;;;-145.18;100.00;46640.88;4989948;28;20479;-72
2022/05/05 22:39:35;;;;;;;154.77;36.87;;;;;;;-145.18;100.00;46640.88;4993705;28;20084;-72
2022/05/05 22:42:02;;;;;;;150.90;31.60;;;;;;;-145.18;100.00;46635.00;4994257;28;20062;-72
2022/05/05 22:44:27;;;;;;;135.17;29.60;;;;;;;-145.18;100.00;46633.06;4994053;28;20494;-72
2022/05/05 22:46:53;;;;;;;154.63;31.20;;;;;;;-145.18;100.00;46642.81;4993754;28;20318;-72
2022/05/05 22:52:02;;;;;;;151.83;28.83;;;;;;;-145.18;100.00;46635.00;4994331;28;20100;-72
2022/05/05 22:54:29;;;;;;;111.47;26.83;;;;;;;-145.18;100.00;46640.88;4976383;28;20331;-72
2022/05/05 22:56:54;;;;;;;155.70;28.00;;;;;;;-145.18;100.00;46633.06;4993655;28;20034;-72
2022/05/05 22:59:19;;;;;;;170.93;27.23;;;;;;;-145.18;100.00;46636.94;4993926;28;20272;-73
2022/05/05 23:01:45;;;;;;;140.33;22.83;;;;;;;-145.18;100.00;46631.09;4993465;28;20100;-73
2022/05/05 23:04:10;;;;;;;143.97;26.60;;;;;;;-145.18;100.00;46631.09;4994264;28;20030;-73
2022/05/05 23:06:36;;;;;;;158.37;26.47;;;;;;;-145.18;100.00;46635.00;4993314;28;20459;-73
2022/05/05 23:09:01;;;;;;;140.90;28.13;;;;;;;-145.18;100.00;46636.94;4993817;28;20061;-73
2022/05/05 23:11:27;;;;;;;119.87;25.83;;;;;;;-145.18;100.00;46633.06;4993269;28;20042;-73
2022/05/05 23:13:52;;;;;;;163.50;28.13;;;;;;;-145.18;100.00;46627.19;4993917;28;20101;-72
2022/05/05 23:16:17;;;;;;;93.53;22.13;;;;;;;-145.18;100.00;46635.00;4993746;28;20062;-72
2022/05/05 23:18:43;;;;;;;114.97;22.80;;;;;;;-145.18;100.00;46627.19;4976072;28;20124;-72
2022/05/05 23:21:08;;;;;;;81.30;21.23;;;;;;;-145.18;100.00;46625.22;4992809;28;20057;-72
2022/05/05 23:23:34;;;;;;;74.40;21.43;;;;;;;-145.18;100.00;46631.09;4993527;28;20096;-72
2022/05/05 23:26:02;;;;;;;97.03;21.20;;;;;;;-145.18;100.00;46631.09;4975806;28;20053;-73
2022/05/05 23:28:28;;;;;;;185.47;24.17;;;;;;;-145.18;100.00;46625.22;4993200;28;20035;-72
2022/05/05 23:30:53;;;;;;;104.60;24.57;;;;;;;-145.18;100.00;46627.19;4976002;28;20287;-72
2022/05/05 23:33:18;;;;;;;152.10;25.27;;;;;;;-145.18;100.00;46629.13;4993372;28;20475;-72
2022/05/05 23:38:28;;;;;;;111.63;23.50;;;;;;;-145.18;100.00;46627.19;4993565;28;20053;-73
2022/05/05 23:40:54;;;;;;;132.80;23.67;;;;;;;-145.18;100.00;46623.28;4992804;28;20268;-72
2022/05/05 23:43:19;;;;;;;141.73;23.83;;;;;;;-145.18;100.00;46625.22;4993210;28;20133;-72
2022/05/05 23:45:44;;;;;;;99.63;22.37;;;;;;;-145.18;100.00;46625.22;4992870;28;20042;-72
2022/05/05 23:48:10;;;;;;;125.63;23.10;;;;;;;-145.18;100.00;46625.22;4993133;28;20096;-72
2022/05/05 23:50:35;;;;;;;200.63;23.70;;;;;;;-145.18;100.00;46623.28;4991760;28;20082;-72
2022/05/05 23:53:00;;;;;;;139.00;22.43;;;;;;;-145.18;100.00;46623.28;4992969;28;20030;-72
2022/05/05 23:55:26;;;;;;;119.83;23.67;;;;;;;-145.18;100.00;46625.22;4992748;28;20501;-72
2022/05/05 23:57:53;;;;;;;68.40;22.10;;;;;;;-145.18;100.00;46621.31;4992962;28;20122;-72
